Time;durP1;ratioP1;P1;durP2;ratioP2;P2;SDS_P1;SDS_P2;PMS_P1;PMS_P2;Temp;Humidity;BMP_temperature;BMP_pressure;BME280_temperature;BME280_humidity;BME280_pressure;Samples;Min_cycle;Max_cycle;Signal;HPM_P1;HPM_P2
2023/09/16 00:00:35;;;;;;;9.95;9.05;;;;;;;;;;5049458;28;20208;-72
2023/09/16 00:03:01;;;;;;;9.85;8.95;;;;;;;;;;5053788;28;20205;-72
2023/09/16 00:05:29;;;;;;;10.45;9.50;;;;;;;;;;5054168;28;20217;-72
2023/09/16 00:07:55;;;;;;;10.98;9.65;;;;;;;;;;5045321;28;20715;-72
2023/09/16 00:10:21;;;;;;;10.45;9.55;;;;;;;;;;5053882;28;20669;-72
2023/09/16 00:12:48;;;;;;;10.05;9.18;;;;;;;;;;5053834;28;20204;-72
2023/09/16 00:15:14;;;;;;;10.40;9.35;;;;;;;;;;5053593;28;20216;-72
2023/09/16 00:17:40;;;;;;;12.18;10.88;;;;;;;;;;5053429;28;20530;-72
2023/09/16 00:20:11;;;;;;;10.73;9.77;;;;;;;;;;5054123;28;20217;-72
2023/09/16 00:22:39;;;;;;;11.18;10.10;;;;;;;;;;5054621;28;20237;-72
2023/09/16 00:25:08;;;;;;;11.75;10.63;;;;;;;;;;5054305;28;20221;-72
2023/09/16 00:27:35;;;;;;;11.95;10.85;;;;;;;;;;5053924;28;20224;-72
2023/09/16 00:30:01;;;;;;;11.48;10.23;;;;;;;;;;5054571;28;20204;-72
2023/09/16 00:32:29;;;;;;;11.50;10.45;;;;;;;;;;5054628;28;20586;-72
2023/09/16 00:34:55;;;;;;;11.75;10.57;;;;;;;;;;5054101;28;20217;-72
2023/09/16 00:37:22;;;;;;;11.07;10.10;;;;;;;;;;5054032;28;20217;-72
2023/09/16 00:39:49;;;;;;;11.45;10.43;;;;;;;;;;5054126;28;20246;-72
2023/09/16 00:42:15;;;;;;;11.68;10.48;;;;;;;;;;5054145;28;20417;-72
2023/09/16 00:44:42;;;;;;;11.02;9.98;;;;;;;;;;5054000;28;20219;-72
2023/09/16 00:47:08;;;;;;;11.48;10.27;;;;;;;;;;5053846;28;20240;-72
2023/09/16 00:49:34;;;;;;;13.57;10.68;;;;;;;;;;5054092;28;20197;-72
2023/09/16 00:52:01;;;;;;;11.50;10.40;;;;;;;;;;5053975;28;20200;-72
2023/09/16 00:54:28;;;;;;;13.85;11.02;;;;;;;;;;5053896;28;20554;-72
2023/09/16 00:56:57;;;;;;;12.27;9.73;;;;;;;;;;5053318;28;20221;-72
2023/09/16 00:59:23;;;;;;;12.80;10.15;;;;;;;;;;5054198;28;20267;-72
2023/09/16 01:01:50;;;;;;;11.23;10.23;;;;;;;;;;5053848;28;20287;-72
2023/09/16 01:04:16;;;;;;;11.45;9.68;;;;;;;;;;5053718;28;20211;-72
2023/09/16 01:06:44;;;;;;;11.25;9.82;;;;;;;;;;5053219;28;20225;-72
2023/09/16 01:09:10;;;;;;;11.40;10.30;;;;;;;;;;5052917;28;20351;-72
2023/09/16 01:11:38;;;;;;;9.75;8.85;;;;;;;;;;5053443;28;20658;-73
2023/09/16 01:14:06;;;;;;;11.43;9.73;;;;;;;;;;5053707;28;20193;-73
2023/09/16 01:16:36;;;;;;;13.63;9.45;;;;;;;;;;5053333;28;20267;-73
2023/09/16 01:19:06;;;;;;;9.57;8.57;;;;;;;;;;5045404;28;20197;-73
2023/09/16 01:21:34;;;;;;;9.90;8.93;;;;;;;;;;5053671;28;20206;-73
2023/09/16 01:24:16;;;;;;;9.48;8.68;;;;;;;;;;5053190;28;20201;-73
2023/09/16 01:26:44;;;;;;;9.43;8.60;;;;;;;;;;5053077;28;20252;-73
2023/09/16 01:29:10;;;;;;;9.27;8.30;;;;;;;;;;5053478;28;20240;-73
2023/09/16 01:31:36;;;;;;;9.63;8.73;;;;;;;;;;5053299;28;20209;-73
2023/09/16 01:34:06;;;;;;;9.23;8.45;;;;;;;;;;5044893;28;20217;-73
2023/09/16 01:36:34;;;;;;;12.02;10.25;;;;;;;;;;5052625;28;20610;-73
2023/09/16 01:39:03;;;;;;;8.68;7.97;;;;;;;;;;5053180;28;20200;-73
2023/09/16 01:41:29;;;;;;;10.13;9.23;;;;;;;;;;5053203;28;20197;-72
2023/09/16 01:43:57;;;;;;;9.52;8.73;;;;;;;;;;5053141;28;20201;-72
2023/09/16 01:46:23;;;;;;;9.70;8.90;;;;;;;;;;5052732;28;20251;-72
2023/09/16 01:48:49;;;;;;;10.05;9.05;;;;;;;;;;5052614;28;20220;-72
2023/09/16 01:51:17;;;;;;;9.13;8.32;;;;;;;;;;5052739;28;20641;-72
2023/09/16 01:53:43;;;;;;;9.63;8.73;;;;;;;;;;5052913;28;20197;-72
2023/09/16 01:56:09;;;;;;;9.85;8.95;;;;;;;;;;5052543;28;20217;-72
2023/09/16 01:58:36;;;;;;;10.70;9.70;;;;;;;;;;5052841;28;20201;-72
2023/09/16 02:01:08;;;;;;;10.45;8.80;;;;;;;;;;5052588;28;20200;-72
2023/09/16 02:03:34;;;;;;;10.68;9.60;;;;;;;;;;5052546;28;20240;-72
2023/09/16 02:06:00;;;;;;;10.13;9.25;;;;;;;;;;5052321;28;20232;-72
2023/09/16 02:08:26;;;;;;;10.25;9.35;;;;;;;;;;5052634;28;20245;-72
2023/09/16 02:10:53;;;;;;;10.48;9.40;;;;;;;;;;5052534;28;20482;-72
2023/09/16 02:13:20;;;;;;;12.43;9.80;;;;;;;;;;5052530;28;20204;-72
2023/09/16 02:15:46;;;;;;;10.95;9.50;;;;;;;;;;5051945;28;20225;-72
2023/09/16 02:18:14;;;;;;;11.55;9.27;;;;;;;;;;5052218;28;20208;-72
2023/09/16 02:20:40;;;;;;;10.77;9.77;;;;;;;;;;5051469;28;20208;-71
2023/09/16 02:23:07;;;;;;;10.82;9.63;;;;;;;;;;5052409;28;20197;-72
2023/09/16 02:25:34;;;;;;;10.55;9.45;;;;;;;;;;5052155;28;20252;-72
2023/09/16 02:28:00;;;;;;;9.77;8.88;;;;;;;;;;5051857;28;20325;-72
2023/09/16 02:30:26;;;;;;;10.73;9.48;;;;;;;;;;5052067;28;20249;-72
2023/09/16 02:32:53;;;;;;;9.70;8.73;;;;;;;;;;5052201;28;20205;-71
2023/09/16 02:35:20;;;;;;;10.98;9.75;;;;;;;;;;5051965;28;20217;-71
2023/09/16 02:37:46;;;;;;;10.43;9.20;;;;;;;;;;5051658;28;20201;-71
2023/09/16 02:40:13;;;;;;;11.10;10.00;;;;;;;;;;5051900;28;20208;-71
2023/09/16 02:42:39;;;;;;;11.48;10.27;;;;;;;;;;5051980;28;20202;-71
2023/09/16 02:45:06;;;;;;;10.45;9.43;;;;;;;;;;5051408;28;20235;-71
2023/09/16 02:47:33;;;;;;;9.95;9.05;;;;;;;;;;5051671;28;20233;-71
2023/09/16 02:49:59;;;;;;;11.13;10.00;;;;;;;;;;5051718;28;20200;-71
2023/09/16 02:52:27;;;;;;;14.20;10.02;;;;;;;;;;5051847;28;20209;-72
2023/09/16 02:54:53;;;;;;;10.02;9.10;;;;;;;;;;5051577;28;20232;-71
2023/09/16 02:57:20;;;;;;;9.93;9.00;;;;;;;;;;5051399;28;20200;-72
2023/09/16 02:59:46;;;;;;;10.45;9.57;;;;;;;;;;5051556;28;20673;-72
2023/09/16 03:02:14;;;;;;;9.90;9.00;;;;;;;;;;5043642;28;20578;-72
2023/09/16 03:04:40;;;;;;;11.23;9.27;;;;;;;;;;5051533;28;20194;-72
2023/09/16 03:07:07;;;;;;;11.43;10.30;;;;;;;;;;5051295;28;20240;-72
2023/09/16 03:09:34;;;;;;;10.95;9.75;;;;;;;;;;5051443;28;20213;-72
2023/09/16 03:12:01;;;;;;;11.07;10.00;;;;;;;;;;5051416;28;20209;-72
2023/09/16 03:14:27;;;;;;;9.98;8.98;;;;;;;;;;5051306;28;20209;-72
2023/09/16 03:16:55;;;;;;;9.48;8.68;;;;;;;;;;5051287;28;20232;-71
2023/09/16 03:19:21;;;;;;;10.05;8.88;;;;;;;;;;5051261;28;20201;-71
2023/09/16 03:21:48;;;;;;;10.02;9.02;;;;;;;;;;5051335;28;20201;-71
2023/09/16 03:24:14;;;;;;;9.85;8.95;;;;;;;;;;5043254;28;20201;-72
2023/09/16 03:26:41;;;;;;;10.15;9.25;;;;;;;;;;5050898;28;20585;-72
2023/09/16 03:29:08;;;;;;;11.55;9.98;;;;;;;;;;5050972;28;20212;-71
2023/09/16 03:31:34;;;;;;;10.20;9.18;;;;;;;;;;5051077;28;20197;-71
2023/09/16 03:34:00;;;;;;;10.50;9.52;;;;;;;;;;5051208;28;20211;-71
2023/09/16 03:36:27;;;;;;;10.10;9.20;;;;;;;;;;5050716;28;20231;-72
2023/09/16 03:38:53;;;;;;;11.38;10.15;;;;;;;;;;5051122;28;20200;-72
2023/09/16 03:41:19;;;;;;;11.63;10.48;;;;;;;;;;5051197;28;20233;-72
2023/09/16 03:43:47;;;;;;;11.35;10.25;;;;;;;;;;5051108;28;20561;-72
2023/09/16 03:46:13;;;;;;;11.45;10.40;;;;;;;;;;5050902;28;20481;-72
2023/09/16 03:48:39;;;;;;;10.80;9.80;;;;;;;;;;5051056;28;20213;-72
2023/09/16 03:51:07;;;;;;;12.32;10.88;;;;;;;;;;5051110;28;20201;-71
2023/09/16 03:53:34;;;;;;;13.05;10.32;;;;;;;;;;5051355;28;20272;-71
2023/09/16 03:56:00;;;;;;;12.45;10.32;;;;;;;;;;5050477;28;20216;-71
2023/09/16 03:58:26;;;;;;;12.02;10.50;;;;;;;;;;5051236;28;20208;-71
2023/09/16 04:00:54;;;;;;;11.48;10.25;;;;;;;;;;5051178;28;20201;-71
2023/09/16 04:03:20;;;;;;;10.80;9.70;;;;;;;;;;5051001;28;20201;-70
2023/09/16 04:05:46;;;;;;;11.30;10.02;;;;;;;;;;5050673;28;20224;-71
2023/09/16 04:08:13;;;;;;;11.13;9.93;;;;;;;;;;5050801;28;20225;-71
2023/09/16 04:10:39;;;;;;;12.55;10.82;;;;;;;;;;5050833;28;20193;-71
2023/09/16 04:13:05;;;;;;;12.57;11.38;;;;;;;;;;5051028;28;20201;-71
2023/09/16 04:15:31;;;;;;;12.45;11.23;;;;;;;;;;5050520;28;20597;-71
2023/09/16 04:17:59;;;;;;;12.02;10.35;;;;;;;;;;5050643;28;20212;-71
2023/09/16 04:20:25;;;;;;;12.18;10.88;;;;;;;;;;5050842;28;20202;-71
2023/09/16 04:22:51;;;;;;;12.07;10.88;;;;;;;;;;5050804;28;20673;-71
2023/09/16 04:25:18;;;;;;;11.98;10.70;;;;;;;;;;5050432;28;20213;-71
2023/09/16 04:27:44;;;;;;;12.90;9.90;;;;;;;;;;5050856;28;20205;-71
2023/09/16 04:30:11;;;;;;;10.80;9.70;;;;;;;;;;5050644;28;20217;-71
2023/09/16 04:32:37;;;;;;;12.00;10.38;;;;;;;;;;5050752;28;20258;-71
2023/09/16 04:35:05;;;;;;;13.15;10.30;;;;;;;;;;5050554;28;20232;-71
2023/09/16 04:37:32;;;;;;;11.63;9.80;;;;;;;;;;5050497;28;20198;-71
2023/09/16 04:39:58;;;;;;;11.90;10.70;;;;;;;;;;5050495;28;20203;-68
2023/09/16 04:42:30;;;;;;;11.10;10.02;;;;;;;;;;5050872;28;20197;-68
2023/09/16 04:44:58;;;;;;;10.90;9.90;;;;;;;;;;5054182;28;20352;-68
2023/09/16 04:47:24;;;;;;;9.73;8.80;;;;;;;;;;5053819;28;20583;-68
2023/09/16 04:49:51;;;;;;;10.00;9.00;;;;;;;;;;5054086;28;20240;-68
2023/09/16 04:52:18;;;;;;;10.82;9.82;;;;;;;;;;5053871;28;20209;-68
2023/09/16 04:54:45;;;;;;;11.55;9.77;;;;;;;;;;5054053;28;20212;-68
2023/09/16 04:57:13;;;;;;;11.70;8.90;;;;;;;;;;5053772;28;20197;-68
2023/09/16 04:59:40;;;;;;;10.52;9.40;;;;;;;;;;5054005;28;20193;-68
2023/09/16 05:02:06;;;;;;;10.77;9.73;;;;;;;;;;5053808;28;20288;-68
2023/09/16 05:04:32;;;;;;;9.95;9.10;;;;;;;;;;5053758;28;20212;-68
2023/09/16 05:06:58;;;;;;;11.25;10.10;;;;;;;;;;5053315;28;20204;-68
2023/09/16 05:09:26;;;;;;;10.50;9.57;;;;;;;;;;5053846;28;20221;-68
2023/09/16 05:11:52;;;;;;;10.63;9.60;;;;;;;;;;5053840;28;20201;-68
2023/09/16 05:14:18;;;;;;;10.43;9.48;;;;;;;;;;5053408;28;20201;-68
2023/09/16 05:16:45;;;;;;;10.88;9.80;;;;;;;;;;5053197;28;20853;-68
2023/09/16 05:19:11;;;;;;;11.02;9.35;;;;;;;;;;5053346;28;20612;-68
2023/09/16 05:21:38;;;;;;;11.13;9.77;;;;;;;;;;5053810;28;20557;-68
2023/09/16 05:24:05;;;;;;;11.10;10.10;;;;;;;;;;5053641;28;20205;-68
2023/09/16 05:26:32;;;;;;;11.32;9.95;;;;;;;;;;5053031;28;20664;-68
2023/09/16 05:28:58;;;;;;;11.25;9.95;;;;;;;;;;5053357;28;20228;-68
2023/09/16 05:31:25;;;;;;;10.93;9.82;;;;;;;;;;5053312;28;20200;-69
2023/09/16 05:33:51;;;;;;;10.43;9.43;;;;;;;;;;5053217;28;20288;-68
2023/09/16 05:36:18;;;;;;;10.88;9.85;;;;;;;;;;5052888;28;20217;-68
2023/09/16 05:38:44;;;;;;;10.68;9.68;;;;;;;;;;5053184;28;20650;-68
2023/09/16 05:41:10;;;;;;;10.63;9.38;;;;;;;;;;5053017;28;20208;-68
2023/09/16 05:43:38;;;;;;;11.27;9.75;;;;;;;;;;5053174;28;20201;-67
2023/09/16 05:46:06;;;;;;;10.52;9.63;;;;;;;;;;5052608;28;20221;-67
2023/09/16 05:48:32;;;;;;;10.82;9.82;;;;;;;;;;5052755;28;20232;-67
2023/09/16 05:50:58;;;;;;;11.35;10.18;;;;;;;;;;5052997;28;20201;-67
2023/09/16 05:53:25;;;;;;;11.50;10.15;;;;;;;;;;5052832;28;20197;-67
2023/09/16 05:55:51;;;;;;;11.32;10.30;;;;;;;;;;5052547;28;20221;-67
2023/09/16 05:58:18;;;;;;;11.93;10.82;;;;;;;;;;5052695;28;20223;-67
2023/09/16 06:00:49;;;;;;;11.63;10.45;;;;;;;;;;5052793;28;20193;-67
2023/09/16 06:03:16;;;;;;;12.15;11.02;;;;;;;;;;5052704;28;20259;-68
2023/09/16 06:05:42;;;;;;;13.70;11.85;;;;;;;;;;5052490;28;20748;-69
2023/09/16 06:08:09;;;;;;;12.52;11.20;;;;;;;;;;5052177;28;20600;-68
2023/09/16 06:10:36;;;;;;;12.93;11.75;;;;;;;;;;5052598;28;20224;-68
2023/09/16 06:13:02;;;;;;;12.85;11.55;;;;;;;;;;5052551;28;20587;-68
2023/09/16 06:15:28;;;;;;;14.55;12.32;;;;;;;;;;5052129;28;20216;-68
2023/09/16 06:17:56;;;;;;;14.35;12.32;;;;;;;;;;5052000;28;20205;-68
2023/09/16 06:20:22;;;;;;;15.90;12.15;;;;;;;;;;5052427;28;20209;-68
2023/09/16 06:22:48;;;;;;;15.77;12.98;;;;;;;;;;5052461;28;20209;-68
2023/09/16 06:25:15;;;;;;;13.43;12.23;;;;;;;;;;5052136;28;20224;-68
2023/09/16 06:27:41;;;;;;;13.35;12.00;;;;;;;;;;5051987;28;20235;-68
2023/09/16 06:30:08;;;;;;;13.63;12.23;;;;;;;;;;5051841;28;20245;-69
2023/09/16 06:32:34;;;;;;;13.93;12.50;;;;;;;;;;5052337;28;20200;-68
2023/09/16 06:35:02;;;;;;;14.48;12.38;;;;;;;;;;5052228;28;20221;-68
2023/09/16 06:37:28;;;;;;;14.45;12.95;;;;;;;;;;5051871;28;20201;-68
2023/09/16 06:39:54;;;;;;;14.27;11.88;;;;;;;;;;5052112;28;20197;-68
2023/09/16 06:42:20;;;;;;;14.10;12.68;;;;;;;;;;5051574;28;20588;-69
2023/09/16 06:44:54;;;;;;;13.48;12.15;;;;;;;;;;5052143;28;20615;-68
2023/09/16 06:47:25;;;;;;;14.82;13.30;;;;;;;;;;5051942;28;20197;-68
2023/09/16 06:49:51;;;;;;;15.30;13.35;;;;;;;;;;5051838;28;20224;-68
2023/09/16 06:52:19;;;;;;;15.07;13.57;;;;;;;;;;5051855;28;20201;-68
2023/09/16 06:54:48;;;;;;;15.32;12.80;;;;;;;;;;5051838;28;20200;-68
2023/09/16 06:57:14;;;;;;;15.93;13.75;;;;;;;;;;5051324;28;20205;-69
2023/09/16 06:59:41;;;;;;;14.63;12.70;;;;;;;;;;5051665;28;20193;-69
2023/09/16 07:02:07;;;;;;;12.85;11.68;;;;;;;;;;5051455;28;20677;-69
2023/09/16 07:04:36;;;;;;;16.40;12.95;;;;;;;;;;5051928;28;20205;-68
2023/09/16 07:07:02;;;;;;;14.48;12.93;;;;;;;;;;5050635;28;20289;-68
2023/09/16 07:09:30;;;;;;;15.98;12.85;;;;;;;;;;5051284;28;20217;-69
2023/09/16 07:11:56;;;;;;;14.57;13.07;;;;;;;;;;5051400;28;20673;-69
2023/09/16 07:14:23;;;;;;;16.23;14.57;;;;;;;;;;5051254;28;20681;-69
2023/09/16 07:16:49;;;;;;;16.45;13.77;;;;;;;;;;5051039;28;20712;-69
2023/09/16 07:19:15;;;;;;;16.45;13.50;;;;;;;;;;5051315;28;20623;-69
2023/09/16 07:21:41;;;;;;;15.23;13.57;;;;;;;;;;5051637;28;20200;-69
2023/09/16 07:24:08;;;;;;;14.88;13.32;;;;;;;;;;5051455;28;20212;-68
2023/09/16 07:26:35;;;;;;;17.17;14.40;;;;;;;;;;5050808;28;20224;-68
2023/09/16 07:29:02;;;;;;;15.57;14.07;;;;;;;;;;5051468;28;20205;-68
2023/09/16 07:31:29;;;;;;;14.88;13.10;;;;;;;;;;5051250;28;20209;-68
2023/09/16 07:33:55;;;;;;;20.73;13.68;;;;;;;;;;5051434;28;20200;-68
2023/09/16 07:36:21;;;;;;;17.02;14.52;;;;;;;;;;5050878;28;20228;-68
2023/09/16 07:38:48;;;;;;;15.27;13.68;;;;;;;;;;5051090;28;20209;-68
2023/09/16 07:41:14;;;;;;;14.80;13.40;;;;;;;;;;5051331;28;20417;-68
2023/09/16 07:43:42;;;;;;;16.20;14.18;;;;;;;;;;5051100;28;20582;-68
2023/09/16 07:46:08;;;;;;;16.42;13.82;;;;;;;;;;5050946;28;20236;-68
2023/09/16 07:48:35;;;;;;;15.45;13.18;;;;;;;;;;5050898;28;20678;-68
2023/09/16 07:51:01;;;;;;;13.10;11.85;;;;;;;;;;5050985;28;20232;-68
2023/09/16 07:53:27;;;;;;;14.15;12.75;;;;;;;;;;5050852;28;20208;-68
2023/09/16 07:55:53;;;;;;;14.43;12.93;;;;;;;;;;5050674;28;20461;-75
2023/09/16 07:58:20;;;;;;;14.70;13.00;;;;;;;;;;5051078;28;20205;-75
2023/09/16 08:00:47;;;;;;;12.73;11.43;;;;;;;;;;5051084;28;20197;-75
2023/09/16 08:03:13;;;;;;;16.48;11.02;;;;;;;;;;5051080;28;20205;-75
2023/09/16 08:05:40;;;;;;;12.43;10.65;;;;;;;;;;5050812;28;20217;-75
2023/09/16 08:08:06;;;;;;;12.05;10.20;;;;;;;;;;5050733;28;20613;-75
2023/09/16 08:10:32;;;;;;;10.95;9.90;;;;;;;;;;5051110;28;20228;-75
2023/09/16 08:12:58;;;;;;;11.60;10.50;;;;;;;;;;5051002;28;20197;-75
2023/09/16 08:15:25;;;;;;;11.82;10.63;;;;;;;;;;5050927;28;20228;-75
2023/09/16 08:17:54;;;;;;;11.65;10.55;;;;;;;;;;5051515;28;20258;-75
2023/09/16 08:20:20;;;;;;;11.27;10.27;;;;;;;;;;5054584;28;20197;-75
2023/09/16 08:22:47;;;;;;;9.75;8.95;;;;;;;;;;5054483;28;20254;-75
2023/09/16 08:25:13;;;;;;;11.35;10.35;;;;;;;;;;5054627;28;20228;-75
2023/09/16 08:27:39;;;;;;;10.45;9.35;;;;;;;;;;5054170;28;20669;-75
2023/09/16 08:30:06;;;;;;;9.15;8.13;;;;;;;;;;5054608;28;20248;-75
2023/09/16 08:32:33;;;;;;;10.23;9.13;;;;;;;;;;5054415;28;20201;-75
2023/09/16 08:35:01;;;;;;;9.82;8.82;;;;;;;;;;5054367;28;20220;-75
2023/09/16 08:37:27;;;;;;;11.00;9.70;;;;;;;;;;5054130;28;20205;-75
2023/09/16 08:39:53;;;;;;;9.32;8.48;;;;;;;;;;5054404;28;20202;-75
2023/09/16 08:42:23;;;;;;;10.80;9.00;;;;;;;;;;5054248;28;20201;-75
2023/09/16 08:44:51;;;;;;;8.65;7.95;;;;;;;;;;5054283;28;20209;-75
2023/09/16 08:47:21;;;;;;;10.15;9.10;;;;;;;;;;5054572;28;20205;-75
2023/09/16 08:49:50;;;;;;;9.48;8.48;;;;;;;;;;5046374;28;20212;-75
2023/09/16 08:52:18;;;;;;;10.57;8.55;;;;;;;;;;5054110;28;20292;-75
2023/09/16 08:54:46;;;;;;;7.78;7.05;;;;;;;;;;5053969;28;20213;-75
2023/09/16 08:57:13;;;;;;;8.60;7.80;;;;;;;;;;5053840;28;20232;-75
2023/09/16 08:59:39;;;;;;;7.47;6.88;;;;;;;;;;5053746;28;20201;-75
2023/09/16 09:02:06;;;;;;;6.47;6.00;;;;;;;;;;5053827;28;20208;-75
2023/09/16 09:04:33;;;;;;;7.05;6.40;;;;;;;;;;5053457;28;20200;-75
2023/09/16 09:07:00;;;;;;;8.85;8.07;;;;;;;;;;5053737;28;20215;-75
2023/09/16 09:09:28;;;;;;;7.47;6.88;;;;;;;;;;5053639;28;20204;-75
2023/09/16 09:11:56;;;;;;;6.70;6.20;;;;;;;;;;5053708;28;20665;-75
2023/09/16 09:14:23;;;;;;;6.40;6.00;;;;;;;;;;5053580;28;20204;-75
2023/09/16 09:16:50;;;;;;;7.20;6.60;;;;;;;;;;5053482;28;20673;-75
2023/09/16 09:19:17;;;;;;;6.32;5.80;;;;;;;;;;5053683;28;20660;-76
2023/09/16 09:21:44;;;;;;;6.43;5.82;;;;;;;;;;5053487;28;20216;-76
2023/09/16 09:24:10;;;;;;;6.57;5.90;;;;;;;;;;5053707;28;20200;-75
2023/09/16 09:26:38;;;;;;;5.70;5.30;;;;;;;;;;5053136;28;20228;-76
2023/09/16 09:29:09;;;;;;;5.82;5.22;;;;;;;;;;5053031;28;20196;-75
2023/09/16 09:31:35;;;;;;;6.53;5.93;;;;;;;;;;5053580;28;20395;-75
2023/09/16 09:34:02;;;;;;;6.50;6.00;;;;;;;;;;5053592;28;20197;-75
2023/09/16 09:36:32;;;;;;;5.97;5.55;;;;;;;;;;5052695;28;20704;-75
2023/09/16 09:38:59;;;;;;;7.07;5.00;;;;;;;;;;5053432;28;20280;-75
2023/09/16 09:41:25;;;;;;;5.13;4.72;;;;;;;;;;5053057;28;20657;-75
2023/09/16 09:43:53;;;;;;;5.03;4.72;;;;;;;;;;5053069;28;20208;-75
2023/09/16 09:46:21;;;;;;;4.88;4.57;;;;;;;;;;5052914;28;20216;-75
2023/09/16 09:48:47;;;;;;;4.85;4.65;;;;;;;;;;5053092;28;20193;-75
2023/09/16 09:51:16;;;;;;;5.78;5.10;;;;;;;;;;5052995;28;20213;-76
2023/09/16 09:53:42;;;;;;;4.50;4.20;;;;;;;;;;5052901;28;20211;-75
2023/09/16 09:56:10;;;;;;;4.97;4.55;;;;;;;;;;5052642;28;20212;-75
2023/09/16 09:58:36;;;;;;;4.03;3.83;;;;;;;;;;5052970;28;20206;-75
2023/09/16 10:01:04;;;;;;;3.92;3.83;;;;;;;;;;5052847;28;20571;-75
2023/09/16 10:03:30;;;;;;;4.40;4.10;;;;;;;;;;5052952;28;20204;-75
2023/09/16 10:05:58;;;;;;;4.78;4.47;;;;;;;;;;5052400;28;20762;-75
2023/09/16 10:08:25;;;;;;;3.88;3.70;;;;;;;;;;5052688;28;20208;-75
2023/09/16 10:10:54;;;;;;;3.97;3.78;;;;;;;;;;5044244;28;20212;-75
2023/09/16 10:13:20;;;;;;;4.35;3.95;;;;;;;;;;5053134;28;20282;-75
2023/09/16 10:15:46;;;;;;;4.20;3.53;;;;;;;;;;5052556;28;20227;-76
2023/09/16 10:18:14;;;;;;;3.75;3.45;;;;;;;;;;5052528;28;20200;-75
2023/09/16 10:20:44;;;;;;;3.85;3.65;;;;;;;;;;5052704;28;20610;-76
2023/09/16 10:23:10;;;;;;;3.03;2.92;;;;;;;;;;5052518;28;20200;-74
2023/09/16 10:25:37;;;;;;;3.35;3.25;;;;;;;;;;5051856;28;20235;-73
2023/09/16 10:28:05;;;;;;;3.72;3.45;;;;;;;;;;5051790;28;20203;-73
2023/09/16 10:30:32;;;;;;;3.22;3.13;;;;;;;;;;5052270;28;20315;-73
2023/09/16 10:33:00;;;;;;;3.90;3.50;;;;;;;;;;5052400;28;20197;-73
2023/09/16 10:35:28;;;;;;;3.95;3.70;;;;;;;;;;5052014;28;20270;-73
2023/09/16 10:37:55;;;;;;;3.75;3.45;;;;;;;;;;5051843;28;20204;-73
2023/09/16 10:40:21;;;;;;;4.25;3.95;;;;;;;;;;5051247;28;20192;-73
2023/09/16 10:42:49;;;;;;;3.75;3.55;;;;;;;;;;5052145;28;20212;-73
2023/09/16 10:45:17;;;;;;;4.38;4.00;;;;;;;;;;5052421;28;20281;-73
2023/09/16 10:47:45;;;;;;;3.83;3.63;;;;;;;;;;5052159;28;20284;-73
2023/09/16 10:50:11;;;;;;;4.55;4.13;;;;;;;;;;5051978;28;20204;-73
2023/09/16 10:52:40;;;;;;;3.83;3.63;;;;;;;;;;5051704;28;20196;-73
2023/09/16 10:55:09;;;;;;;4.45;4.18;;;;;;;;;;5051911;28;20270;-73
2023/09/16 10:57:38;;;;;;;4.05;3.85;;;;;;;;;;5051610;28;20200;-73
2023/09/16 11:00:05;;;;;;;4.18;3.85;;;;;;;;;;5051793;28;20196;-73
2023/09/16 11:02:33;;;;;;;5.57;3.72;;;;;;;;;;5051877;28;20205;-72
2023/09/16 11:05:00;;;;;;;4.03;3.83;;;;;;;;;;5043717;28;20656;-72
2023/09/16 11:07:26;;;;;;;3.85;3.60;;;;;;;;;;5051312;28;20223;-72
2023/09/16 11:09:54;;;;;;;4.45;4.13;;;;;;;;;;5051872;28;20208;-73
2023/09/16 11:12:22;;;;;;;4.13;3.88;;;;;;;;;;5051464;28;20730;-73
2023/09/16 11:14:49;;;;;;;3.65;3.45;;;;;;;;;;5051406;28;20201;-73
2023/09/16 11:17:15;;;;;;;3.60;3.40;;;;;;;;;;5051340;28;20196;-73
2023/09/16 11:19:42;;;;;;;3.50;3.15;;;;;;;;;;5051133;28;20723;-73
2023/09/16 11:22:09;;;;;;;3.03;2.80;;;;;;;;;;5051736;28;20220;-73
2023/09/16 11:24:36;;;;;;;2.85;2.75;;;;;;;;;;5051030;28;20323;-73
2023/09/16 11:27:04;;;;;;;3.60;3.40;;;;;;;;;;5051249;28;20196;-73
2023/09/16 11:29:31;;;;;;;3.50;3.40;;;;;;;;;;5051451;28;20201;-73
2023/09/16 11:31:58;;;;;;;3.03;2.92;;;;;;;;;;5051106;28;20232;-73
2023/09/16 11:34:25;;;;;;;3.50;3.30;;;;;;;;;;5051197;28;20205;-73
2023/09/16 11:36:52;;;;;;;3.13;3.03;;;;;;;;;;5050793;28;20259;-73
2023/09/16 11:39:21;;;;;;;3.28;3.17;;;;;;;;;;5051478;28;20207;-73
2023/09/16 11:41:48;;;;;;;3.10;2.90;;;;;;;;;;5051088;28;20665;-73
2023/09/16 11:44:16;;;;;;;3.00;2.90;;;;;;;;;;5051097;28;20192;-73
2023/09/16 11:46:42;;;;;;;3.35;2.72;;;;;;;;;;5050579;28;20227;-73
2023/09/16 11:49:09;;;;;;;2.85;2.75;;;;;;;;;;5051297;28;20223;-71
2023/09/16 11:51:36;;;;;;;2.72;2.40;;;;;;;;;;5051523;28;20216;-71
2023/09/16 11:54:02;;;;;;;2.45;2.45;;;;;;;;;;5055403;28;20224;-71
2023/09/16 11:56:29;;;;;;;2.50;2.40;;;;;;;;;;5054792;28;20252;-71
2023/09/16 11:58:56;;;;;;;2.63;2.63;;;;;;;;;;5054985;28;20200;-72
2023/09/16 12:01:24;;;;;;;2.60;2.47;;;;;;;;;;5054822;28;20664;-72
2023/09/16 12:03:51;;;;;;;2.65;2.45;;;;;;;;;;5055004;28;20205;-72
2023/09/16 12:06:20;;;;;;;2.55;2.42;;;;;;;;;;5054403;28;20227;-72
2023/09/16 12:08:46;;;;;;;2.50;2.40;;;;;;;;;;5053952;28;20209;-72
2023/09/16 12:11:13;;;;;;;2.90;2.70;;;;;;;;;;5054808;28;20209;-72
2023/09/16 12:13:40;;;;;;;1.73;1.73;;;;;;;;;;5054732;28;20201;-72
2023/09/16 12:16:06;;;;;;;2.03;1.92;;;;;;;;;;5054352;28;20251;-72
2023/09/16 12:18:34;;;;;;;1.40;1.40;;;;;;;;;;5054692;28;20692;-72
2023/09/16 12:21:01;;;;;;;1.75;1.67;;;;;;;;;;5054748;28;20193;-72
2023/09/16 12:23:28;;;;;;;2.05;1.70;;;;;;;;;;5054736;28;20208;-73
2023/09/16 12:25:54;;;;;;;1.55;1.55;;;;;;;;;;5047424;28;20532;-72
2023/09/16 12:28:22;;;;;;;2.42;1.65;;;;;;;;;;5048731;28;20213;-72
2023/09/16 12:30:49;;;;;;;1.85;1.77;;;;;;;;;;5048878;28;20747;-72
2023/09/16 12:33:16;;;;;;;1.67;1.67;;;;;;;;;;5051051;28;20200;-72
2023/09/16 12:35:43;;;;;;;1.88;1.65;;;;;;;;;;5053532;28;20225;-73
2023/09/16 12:38:10;;;;;;;1.30;1.30;;;;;;;;;;5052903;28;20208;-73
2023/09/16 12:40:36;;;;;;;1.67;1.58;;;;;;;;;;5053996;28;20204;-72
2023/09/16 12:43:04;;;;;;;1.63;1.52;;;;;;;;;;5053890;28;20583;-72
2023/09/16 12:45:31;;;;;;;1.40;1.40;;;;;;;;;;5054071;28;20220;-73
2023/09/16 12:47:58;;;;;;;1.70;1.60;;;;;;;;;;5053889;28;20212;-72
2023/09/16 12:50:25;;;;;;;1.70;1.70;;;;;;;;;;5053990;28;20193;-72
2023/09/16 12:52:53;;;;;;;1.83;1.83;;;;;;;;;;5054365;28;20220;-72
2023/09/16 12:55:23;;;;;;;3.33;1.88;;;;;;;;;;5053898;28;20216;-72
2023/09/16 12:57:51;;;;;;;3.00;1.77;;;;;;;;;;5053984;28;20201;-73
2023/09/16 13:00:20;;;;;;;2.00;1.83;;;;;;;;;;5054145;28;20203;-72
2023/09/16 13:02:46;;;;;;;3.13;1.77;;;;;;;;;;5053813;28;20197;-72
2023/09/16 13:05:15;;;;;;;1.40;1.40;;;;;;;;;;5052895;28;20703;-72
2023/09/16 13:07:42;;;;;;;1.13;1.13;;;;;;;;;;5053848;28;20204;-72
2023/09/16 13:10:10;;;;;;;1.55;1.30;;;;;;;;;;5053769;28;20660;-72
2023/09/16 13:12:36;;;;;;;1.30;1.20;;;;;;;;;;5053705;28;20587;-72
2023/09/16 13:15:02;;;;;;;1.02;1.02;;;;;;;;;;5053777;28;20220;-72
2023/09/16 13:17:29;;;;;;;0.85;0.85;;;;;;;;;;5053627;28;20275;-72
2023/09/16 13:20:00;;;;;;;1.15;1.08;;;;;;;;;;5053667;28;20208;-72
2023/09/16 13:22:26;;;;;;;0.98;0.98;;;;;;;;;;5053920;28;20189;-72
2023/09/16 13:24:53;;;;;;;1.15;1.15;;;;;;;;;;5053427;28;20722;-72
2023/09/16 13:27:20;;;;;;;1.42;1.42;;;;;;;;;;5053634;28;20201;-72
2023/09/16 13:29:47;;;;;;;1.33;1.15;;;;;;;;;;5053633;28;20197;-72
2023/09/16 13:32:14;;;;;;;1.25;1.25;;;;;;;;;;5053452;28;20213;-72
2023/09/16 13:34:41;;;;;;;1.42;1.10;;;;;;;;;;5053366;28;20203;-72
2023/09/16 13:37:07;;;;;;;1.95;1.15;;;;;;;;;;5053036;28;20207;-72
2023/09/16 13:39:40;;;;;;;1.40;1.40;;;;;;;;;;5053609;28;20201;-72
2023/09/16 13:42:07;;;;;;;1.20;1.20;;;;;;;;;;5053509;28;20450;-72
2023/09/16 13:44:34;;;;;;;1.08;1.08;;;;;;;;;;5053313;28;20204;-72
2023/09/16 13:47:00;;;;;;;1.00;1.00;;;;;;;;;;5053008;28;20200;-72
2023/09/16 13:49:27;;;;;;;1.80;1.55;;;;;;;;;;5053185;28;20193;-73
2023/09/16 13:51:53;;;;;;;1.73;1.25;;;;;;;;;;5052866;28;20213;-73
2023/09/16 13:54:19;;;;;;;1.45;1.35;;;;;;;;;;5053424;28;20204;-73
2023/09/16 13:56:46;;;;;;;1.15;1.15;;;;;;;;;;5053131;28;20221;-73
2023/09/16 13:59:12;;;;;;;1.40;1.30;;;;;;;;;;5053942;28;20193;-71
2023/09/16 14:01:40;;;;;;;1.23;1.10;;;;;;;;;;5057393;28;20189;-71
2023/09/16 14:04:06;;;;;;;1.30;1.30;;;;;;;;;;5056121;28;20201;-71
2023/09/16 14:06:32;;;;;;;1.88;1.88;;;;;;;;;;5053156;28;20228;-71
2023/09/16 14:08:58;;;;;;;4.00;1.52;;;;;;;;;;5052934;28;20407;-71
2023/09/16 14:11:26;;;;;;;1.40;1.40;;;;;;;;;;5052886;28;20228;-71
2023/09/16 14:13:52;;;;;;;1.17;1.17;;;;;;;;;;5052692;28;20211;-71
2023/09/16 14:16:18;;;;;;;1.35;1.30;;;;;;;;;;5052340;28;20221;-71
2023/09/16 14:18:46;;;;;;;1.40;1.40;;;;;;;;;;5052494;28;20201;-71
2023/09/16 14:21:12;;;;;;;1.40;1.40;;;;;;;;;;5052888;28;20193;-71
2023/09/16 14:23:39;;;;;;;1.20;1.10;;;;;;;;;;5052644;28;20609;-71
2023/09/16 14:26:05;;;;;;;1.17;1.17;;;;;;;;;;5052427;28;20582;-71
2023/09/16 14:28:32;;;;;;;1.10;1.10;;;;;;;;;;5052590;28;20201;-71